createdAt,value
2019-03-17T00:02:21.582Z,15.83
2019-03-17T00:04:58.743Z,13.62
2019-03-17T00:07:36.153Z,15.32
2019-03-17T00:10:13.509Z,14.93
2019-03-17T00:12:50.598Z,15.55
2019-03-17T00:15:27.758Z,11.15
2019-03-17T00:18:02.298Z,14.83
2019-03-17T00:20:39.441Z,11.18
2019-03-17T00:23:16.648Z,10.30
2019-03-17T00:25:51.185Z,12.10
2019-03-17T00:28:28.263Z,12.40
2019-03-17T00:31:05.390Z,17.25
2019-03-17T00:33:42.436Z,13.03
2019-03-17T00:36:20.052Z,12.80
2019-03-17T00:38:57.145Z,12.90
2019-03-17T00:41:34.351Z,10.85
2019-03-17T00:44:14.307Z,12.10
2019-03-17T00:46:51.500Z,11.43
2019-03-17T00:49:28.652Z,15.00
2019-03-17T00:52:03.306Z,12.78
2019-03-17T00:54:40.424Z,16.00
2019-03-17T00:57:17.520Z,10.23
2019-03-17T00:59:52.162Z,12.35
2019-03-17T01:02:26.911Z,15.30
2019-03-17T01:05:04.206Z,11.78
2019-03-17T01:07:38.820Z,11.20
2019-03-17T01:10:16.087Z,12.53
2019-03-17T01:12:53.350Z,10.80
2019-03-17T01:15:32.224Z,13.48
2019-03-17T01:18:06.251Z,8.73
2019-03-17T01:20:43.838Z,10.13
2019-03-17T01:23:21.442Z,11.40
2019-03-17T01:25:56.168Z,12.47
2019-03-17T01:28:33.368Z,10.18
2019-03-17T01:31:08.326Z,10.28
2019-03-17T01:33:45.506Z,11.08
2019-03-17T01:36:22.784Z,10.58
2019-03-17T01:38:57.551Z,9.65
2019-03-17T01:41:34.911Z,8.15
2019-03-17T01:44:10.983Z,10.05
2019-03-17T01:46:45.713Z,9.93
2019-03-17T01:49:22.900Z,8.33
2019-03-17T01:51:59.995Z,8.98
2019-03-17T01:54:37.282Z,10.35
2019-03-17T01:57:14.419Z,12.25
2019-03-17T01:59:49.142Z,10.80
2019-03-17T02:02:24.157Z,9.10
2019-03-17T02:05:01.359Z,8.30
2019-03-17T02:07:38.588Z,8.80
2019-03-17T02:10:16.126Z,10.15
2019-03-17T02:12:50.927Z,10.15
2019-03-17T02:15:29.471Z,9.23
2019-03-17T02:18:06.544Z,10.85
2019-03-17T02:20:45.160Z,11.63
2019-03-17T02:23:22.395Z,12.88
2019-03-17T02:25:57.448Z,11.12
2019-03-17T02:28:34.636Z,9.80
2019-03-17T02:31:11.857Z,11.53
2019-03-17T02:33:49.053Z,12.55
2019-03-17T02:36:26.112Z,12.47
2019-03-17T02:39:00.861Z,9.78
2019-03-17T02:41:35.520Z,9.45
2019-03-17T02:44:12.673Z,9.68
2019-03-17T02:46:50.063Z,11.45
2019-03-17T02:49:27.264Z,10.58
2019-03-17T02:52:06.585Z,11.28
2019-03-17T02:54:41.120Z,8.38
2019-03-17T02:57:18.449Z,10.08
2019-03-17T02:59:55.560Z,10.53
2019-03-17T03:02:30.221Z,9.15
2019-03-17T03:05:07.259Z,7.80
2019-03-17T03:07:44.338Z,9.18
2019-03-17T03:10:18.919Z,9.88
2019-03-17T03:12:56.103Z,7.30
2019-03-17T03:15:33.245Z,8.48
2019-03-17T03:18:07.930Z,6.90
2019-03-17T03:20:45.284Z,8.33
2019-03-17T03:23:22.444Z,8.63
2019-03-17T03:25:57.091Z,6.87
2019-03-17T03:28:34.377Z,7.05
2019-03-17T03:31:11.746Z,7.28
2019-03-17T03:33:49.215Z,6.08
2019-03-17T03:36:26.718Z,5.33
2019-03-17T03:39:03.870Z,6.72
2019-03-17T03:41:41.230Z,6.85
2019-03-17T03:44:18.500Z,7.28
2019-03-17T03:46:56.891Z,6.05
2019-03-17T03:49:34.058Z,5.58
2019-03-17T03:52:08.947Z,5.90
2019-03-17T03:54:46.096Z,7.53
2019-03-17T03:57:23.146Z,6.78
2019-03-17T04:00:00.453Z,5.97
2019-03-17T04:02:35.248Z,6.30
2019-03-17T04:05:12.756Z,6.67
2019-03-17T04:07:50.156Z,5.95
2019-03-17T04:10:24.956Z,5.15
2019-03-17T04:13:02.410Z,5.95
2019-03-17T04:15:48.795Z,4.20
2019-03-17T04:18:26.002Z,4.87
2019-03-17T04:21:03.101Z,4.28
2019-03-17T04:23:40.428Z,3.67
2019-03-17T04:26:17.846Z,4.03
2019-03-17T04:28:55.232Z,2.77
2019-03-17T04:31:32.625Z,2.15
2019-03-17T04:34:09.799Z,3.25
2019-03-17T04:36:47.630Z,5.42
2019-03-17T04:39:24.710Z,2.33
2019-03-17T04:41:59.929Z,3.08
2019-03-17T04:44:37.197Z,3.22
2019-03-17T04:47:14.408Z,1.22
2019-03-17T04:49:51.625Z,1.90
2019-03-17T04:52:28.001Z,3.42
2019-03-17T04:55:04.558Z,3.40
2019-03-17T04:57:41.601Z,6.28
2019-03-17T05:00:19.376Z,3.40
2019-03-17T05:02:56.793Z,4.67
2019-03-17T05:05:33.994Z,2.47
2019-03-17T05:08:11.207Z,2.33
2019-03-17T05:10:48.519Z,2.25
2019-03-17T05:13:26.766Z,2.15
2019-03-17T05:16:04.065Z,2.15
2019-03-17T05:18:41.463Z,2.27
2019-03-17T05:21:18.665Z,1.40
2019-03-17T05:23:55.858Z,2.55
2019-03-17T05:26:30.554Z,1.82
2019-03-17T05:29:07.851Z,1.12
2019-03-17T05:31:45.514Z,4.37
2019-03-17T05:34:22.939Z,2.95
2019-03-17T05:37:06.269Z,1.67
2019-03-17T05:39:38.427Z,5.58
2019-03-17T05:42:13.046Z,3.22
2019-03-17T05:44:47.739Z,2.55
2019-03-17T05:47:24.947Z,1.60
2019-03-17T05:49:59.715Z,3.30
2019-03-17T05:52:36.907Z,3.47
2019-03-17T05:55:14.508Z,3.12
2019-03-17T05:57:49.237Z,1.82
2019-03-17T06:00:26.459Z,2.75
2019-03-17T06:03:04.148Z,2.10
2019-03-17T06:05:41.433Z,2.65
2019-03-17T06:08:18.683Z,1.92
2019-03-17T06:10:56.166Z,2.92
2019-03-17T06:13:31.088Z,1.65
2019-03-17T06:16:08.460Z,2.25
2019-03-17T06:18:45.640Z,2.83
2019-03-17T06:21:22.798Z,3.10
2019-03-17T06:24:00.328Z,3.62
2019-03-17T06:26:37.618Z,2.95
2019-03-17T06:29:15.055Z,2.58
2019-03-17T06:31:52.488Z,2.62
2019-03-17T06:34:30.283Z,2.45
2019-03-17T06:37:07.559Z,3.30
2019-03-17T06:39:44.820Z,3.15
2019-03-17T06:42:21.935Z,3.22
2019-03-17T06:44:56.843Z,4.17
2019-03-17T06:47:34.072Z,2.85
2019-03-17T06:50:12.687Z,4.20
2019-03-17T06:52:57.876Z,3.65
2019-03-17T06:55:35.254Z,5.67
2019-03-17T06:58:12.909Z,4.53
2019-03-17T07:00:47.567Z,3.42
2019-03-17T07:03:22.262Z,3.20
2019-03-17T07:05:59.639Z,3.40
2019-03-17T07:08:36.797Z,3.35
2019-03-17T07:11:13.045Z,4.28
2019-03-17T07:13:50.394Z,3.52
2019-03-17T07:22:44.140Z,4.35
2019-03-17T07:25:18.929Z,4.28
2019-03-17T07:27:56.407Z,3.35
2019-03-17T07:30:32.280Z,5.67
2019-03-17T07:33:11.489Z,5.45
2019-03-17T07:35:49.449Z,4.80
2019-03-17T07:38:26.666Z,3.45
2019-03-17T07:41:04.039Z,3.65
2019-03-17T07:43:41.260Z,4.45
2019-03-17T07:46:18.497Z,4.17
2019-03-17T07:48:53.489Z,3.15
2019-03-17T07:51:30.656Z,3.90
2019-03-17T07:54:07.991Z,4.72
2019-03-17T07:56:45.618Z,4.65
2019-03-17T07:59:23.076Z,5.55
2019-03-17T08:02:00.500Z,3.85
2019-03-17T08:04:42.384Z,4.10
2019-03-17T08:07:13.818Z,4.95
2019-03-17T08:09:49.558Z,4.78
2019-03-17T08:12:24.289Z,7.50
2019-03-17T08:15:01.619Z,4.15
2019-03-17T08:17:36.576Z,3.50
2019-03-17T08:20:15.767Z,3.92
2019-03-17T08:22:52.986Z,7.30
2019-03-17T08:25:31.668Z,3.85
2019-03-17T08:28:09.065Z,3.27
2019-03-17T08:30:52.952Z,6.67
2019-03-17T08:33:26.825Z,3.52
2019-03-17T08:36:05.363Z,4.10
2019-03-17T08:38:42.621Z,3.77
2019-03-17T08:41:17.457Z,3.83
2019-03-17T08:43:55.345Z,3.65
2019-03-17T08:46:34.809Z,4.78
2019-03-17T08:49:09.538Z,5.05
2019-03-17T08:51:47.599Z,2.90
2019-03-17T08:54:22.366Z,3.50
2019-03-17T08:56:59.628Z,3.02
2019-03-17T08:59:36.731Z,3.05
2019-03-17T09:02:14.060Z,2.72
2019-03-17T09:04:51.286Z,4.62
2019-03-17T09:07:29.722Z,5.33
2019-03-17T09:10:07.162Z,3.20
2019-03-17T09:12:45.553Z,3.25
2019-03-17T09:15:24.137Z,3.47
2019-03-17T09:18:02.657Z,2.00
2019-03-17T09:20:44.679Z,3.15
2019-03-17T09:23:21.902Z,2.37
2019-03-17T09:26:00.575Z,2.85
2019-03-17T09:28:35.349Z,3.70
2019-03-17T09:31:12.561Z,3.12
2019-03-17T09:33:49.851Z,3.10
2019-03-17T09:36:26.999Z,3.27
2019-03-17T09:39:04.158Z,2.37
2019-03-17T09:41:44.442Z,3.33
2019-03-17T09:44:24.404Z,4.28
2019-03-17T09:47:01.595Z,4.15
2019-03-17T09:49:39.008Z,4.10
2019-03-17T09:52:16.264Z,2.55
2019-03-17T09:54:53.791Z,2.52
2019-03-17T09:57:30.963Z,1.62
2019-03-17T10:00:08.897Z,2.67
2019-03-17T10:02:46.281Z,2.58
2019-03-17T10:05:23.742Z,2.62
2019-03-17T10:08:04.075Z,3.10
2019-03-17T10:10:41.741Z,1.92
2019-03-17T10:13:19.487Z,2.15
2019-03-17T10:15:59.061Z,3.55
2019-03-17T10:18:36.656Z,3.83
2019-03-17T10:21:16.104Z,3.80
2019-03-17T10:23:53.872Z,2.85
2019-03-17T10:26:39.827Z,3.85
2019-03-17T10:29:19.160Z,3.70
2019-03-17T10:32:07.563Z,2.75
2019-03-17T10:34:46.300Z,4.00
2019-03-17T10:37:25.829Z,3.70
2019-03-17T10:40:06.798Z,3.17
2019-03-17T10:42:46.396Z,4.60
2019-03-17T10:45:25.880Z,3.05
2019-03-17T10:48:00.905Z,3.20
2019-03-17T10:50:49.128Z,4.67
2019-03-17T10:53:19.228Z,4.10
2019-03-17T10:55:56.909Z,5.62
2019-03-17T10:58:34.516Z,4.33
2019-03-17T11:01:12.986Z,7.20
2019-03-17T11:03:50.659Z,3.47
2019-03-17T11:06:28.333Z,4.72
2019-03-17T11:09:05.960Z,2.52
2019-03-17T11:11:43.454Z,3.72
2019-03-17T11:14:21.310Z,2.80
2019-03-17T11:16:58.800Z,3.05
2019-03-17T11:19:36.145Z,4.33
2019-03-17T11:22:13.563Z,3.62
2019-03-17T11:24:53.207Z,3.90
2019-03-17T11:27:32.595Z,4.12
2019-03-17T11:30:10.802Z,3.50
2019-03-17T11:32:49.933Z,5.80
2019-03-17T11:35:27.286Z,2.85
2019-03-17T11:38:04.751Z,1.47
2019-03-17T11:40:44.141Z,1.40
2019-03-17T11:43:21.527Z,3.70
2019-03-17T11:45:58.839Z,3.35
2019-03-17T11:48:37.352Z,2.75
2019-03-17T11:51:14.750Z,3.72
2019-03-17T11:53:52.316Z,3.20
2019-03-17T11:56:29.935Z,2.87
2019-03-17T11:59:07.871Z,3.45
2019-03-17T12:01:45.463Z,3.45
2019-03-17T12:04:22.929Z,2.30
2019-03-17T12:07:00.282Z,3.77
2019-03-17T12:09:49.306Z,3.72
2019-03-17T12:12:16.091Z,4.37
2019-03-17T12:14:53.543Z,5.30
2019-03-17T12:17:30.988Z,3.15
2019-03-17T12:20:08.633Z,5.70
2019-03-17T12:22:45.902Z,3.52
2019-03-17T12:25:23.200Z,5.12
2019-03-17T12:28:01.028Z,3.08
2019-03-17T12:30:39.417Z,4.17
2019-03-17T12:33:16.610Z,2.98
2019-03-17T12:35:53.708Z,2.95
2019-03-17T12:38:30.884Z,2.87
2019-03-17T12:41:07.998Z,4.05
2019-03-17T12:43:45.204Z,2.90
2019-03-17T12:46:22.496Z,5.95
2019-03-17T12:48:59.742Z,3.22
2019-03-17T12:51:37.007Z,3.30
2019-03-17T12:54:14.178Z,4.47
2019-03-17T12:56:51.465Z,4.22
2019-03-17T12:59:28.634Z,3.60
2019-03-17T13:02:07.694Z,4.03
2019-03-17T13:04:45.092Z,3.98
2019-03-17T13:07:22.896Z,4.45
2019-03-17T13:10:00.694Z,5.65
2019-03-17T13:12:38.062Z,3.40
2019-03-17T13:15:15.831Z,5.15
2019-03-17T13:17:50.418Z,4.05
2019-03-17T13:20:29.595Z,7.22
2019-03-17T13:23:05.748Z,6.78
2019-03-17T13:25:42.857Z,4.97
2019-03-17T13:28:17.491Z,3.47
2019-03-17T13:30:54.612Z,3.98
2019-03-17T13:33:31.739Z,6.58
2019-03-17T13:36:09.055Z,3.15
2019-03-17T13:38:46.241Z,4.85
2019-03-17T13:41:23.265Z,4.40
2019-03-17T13:44:00.453Z,4.97
2019-03-17T13:46:37.499Z,5.50
2019-03-17T13:49:14.483Z,5.80
2019-03-17T13:51:51.510Z,4.30
2019-03-17T13:54:28.509Z,4.70
2019-03-17T13:57:05.694Z,3.83
2019-03-17T13:59:42.671Z,2.98
2019-03-17T14:02:19.796Z,5.37
2019-03-17T14:04:56.890Z,6.08
2019-03-17T14:07:33.942Z,5.05
2019-03-17T14:10:14.079Z,5.20
2019-03-17T14:12:50.706Z,3.15
2019-03-17T14:15:27.780Z,4.37
2019-03-17T14:18:04.953Z,6.70
2019-03-17T14:20:42.070Z,3.85
2019-03-17T14:23:19.192Z,3.42
2019-03-17T14:25:56.280Z,3.65
2019-03-17T14:28:33.958Z,4.00
2019-03-17T14:31:10.903Z,4.70
2019-03-17T14:33:47.962Z,3.72
2019-03-17T14:36:25.017Z,5.97
2019-03-17T14:39:02.108Z,4.97
2019-03-17T14:41:39.086Z,6.83
2019-03-17T14:44:16.236Z,5.15
2019-03-17T14:46:53.390Z,4.53
2019-03-17T14:49:30.604Z,5.72
2019-03-17T14:52:07.986Z,3.83
2019-03-17T14:54:45.186Z,5.30
2019-03-17T14:57:22.324Z,8.25
2019-03-17T14:59:59.454Z,2.20
2019-03-17T15:02:38.029Z,3.30
2019-03-17T15:05:15.916Z,6.12
2019-03-17T15:07:53.055Z,5.05
2019-03-17T15:10:30.331Z,4.62
2019-03-17T15:13:07.415Z,5.28
2019-03-17T15:15:44.584Z,5.75
2019-03-17T15:18:21.786Z,3.00
2019-03-17T15:20:58.884Z,3.92
2019-03-17T15:23:36.006Z,5.47
2019-03-17T15:26:13.235Z,4.65
2019-03-17T15:28:50.349Z,2.30
2019-03-17T15:31:25.019Z,5.03
2019-03-17T15:34:02.048Z,5.08
2019-03-17T15:36:40.974Z,3.27
2019-03-17T15:39:18.139Z,4.65
2019-03-17T15:41:55.237Z,3.25
2019-03-17T15:44:33.380Z,4.80
2019-03-17T15:47:10.414Z,4.67
2019-03-17T15:49:48.866Z,4.70
2019-03-17T15:52:25.951Z,5.58
2019-03-17T15:55:03.024Z,4.55
2019-03-17T15:57:40.156Z,4.12
2019-03-17T16:00:25.258Z,6.40
2019-03-17T16:02:58.553Z,6.62
2019-03-17T16:05:35.611Z,3.67
2019-03-17T16:08:12.783Z,3.60
2019-03-17T16:10:49.927Z,2.75
2019-03-17T16:13:27.011Z,3.92
2019-03-17T16:16:04.107Z,4.28
2019-03-17T16:18:41.070Z,5.97
2019-03-17T16:21:18.372Z,3.65
2019-03-17T16:23:55.574Z,4.55
2019-03-17T16:26:30.242Z,4.28
2019-03-17T16:29:07.811Z,4.08
2019-03-17T16:31:44.906Z,4.17
2019-03-17T16:34:25.628Z,3.30
2019-03-17T16:37:02.312Z,3.58
2019-03-17T16:39:39.492Z,3.98
2019-03-17T16:42:16.575Z,3.62
2019-03-17T16:44:51.274Z,2.92
2019-03-17T16:47:28.394Z,4.08
2019-03-17T16:50:03.208Z,2.62
2019-03-17T16:52:40.341Z,2.58
2019-03-17T16:55:17.676Z,1.57
2019-03-17T16:57:52.311Z,2.87
2019-03-17T17:00:31.504Z,2.80
2019-03-17T17:03:08.629Z,2.45
2019-03-17T17:05:45.711Z,4.60
2019-03-17T17:08:20.335Z,3.10
2019-03-17T17:10:54.903Z,4.28
2019-03-17T17:13:32.052Z,2.20
2019-03-17T17:16:09.368Z,4.15
2019-03-17T17:18:44.081Z,3.27
2019-03-17T17:21:21.379Z,1.65
2019-03-17T17:23:59.738Z,5.58
2019-03-17T17:26:37.629Z,1.98
2019-03-17T17:29:10.098Z,2.50
2019-03-17T17:31:47.226Z,3.60
2019-03-17T17:34:24.412Z,1.52
2019-03-17T17:37:01.662Z,2.77
2019-03-17T17:39:38.852Z,4.50
2019-03-17T17:42:16.108Z,3.12
2019-03-17T17:44:52.906Z,2.08
2019-03-17T17:47:30.086Z,3.85
2019-03-17T17:50:07.160Z,1.72
2019-03-17T17:52:41.742Z,2.47
2019-03-17T17:55:18.846Z,1.98
2019-03-17T17:57:55.973Z,2.90
2019-03-17T18:06:28.619Z,2.30
2019-03-17T18:09:03.247Z,2.60
2019-03-17T18:11:37.881Z,2.52
2019-03-17T18:14:15.301Z,2.52
2019-03-17T18:16:49.935Z,2.50
2019-03-17T18:19:26.938Z,5.35
2019-03-17T18:22:04.055Z,2.25
2019-03-17T18:24:41.084Z,2.37
2019-03-17T18:27:18.333Z,3.00
2019-03-17T18:29:55.511Z,2.62
2019-03-17T18:32:32.686Z,3.50
2019-03-17T18:35:10.175Z,3.72
2019-03-17T18:37:47.678Z,0.95
2019-03-17T18:40:24.713Z,2.25
2019-03-17T18:43:02.047Z,3.50
2019-03-17T18:45:39.291Z,3.35
2019-03-17T18:48:16.610Z,1.98
2019-03-17T18:50:53.615Z,2.15
2019-03-17T18:53:30.622Z,4.12
2019-03-17T18:56:05.139Z,1.35
2019-03-17T18:58:42.402Z,2.55
2019-03-17T19:03:45.143Z,3.37
2019-03-17T19:06:22.200Z,1.62
2019-03-17T19:08:59.248Z,2.35
2019-03-17T19:11:38.439Z,1.15
2019-03-17T19:14:13.169Z,1.92
2019-03-17T19:16:50.123Z,2.45
2019-03-17T19:19:24.844Z,4.25
2019-03-17T19:22:01.850Z,1.57
2019-03-17T19:24:38.963Z,3.42
2019-03-17T19:27:16.171Z,1.80
2019-03-17T19:29:53.355Z,2.08
2019-03-17T19:32:30.656Z,3.10
2019-03-17T19:35:08.101Z,1.95
2019-03-17T19:37:45.238Z,3.47
2019-03-17T19:40:22.779Z,4.72
2019-03-17T19:42:59.929Z,2.35
2019-03-17T19:45:34.602Z,2.50
2019-03-17T19:48:12.006Z,2.33
2019-03-17T19:50:49.279Z,1.67
2019-03-17T19:53:23.875Z,5.17
2019-03-17T19:56:00.945Z,2.47
2019-03-17T19:58:40.492Z,2.52
2019-03-17T20:01:16.283Z,1.70
2019-03-17T20:03:53.399Z,2.70
2019-03-17T20:06:30.658Z,2.83
2019-03-17T20:09:08.414Z,4.28
2019-03-17T20:11:44.804Z,5.30
2019-03-17T20:14:32.646Z,4.00
2019-03-17T20:17:09.799Z,4.75
2019-03-17T20:19:51.093Z,4.42
2019-03-17T20:22:28.336Z,3.45
2019-03-17T20:25:02.999Z,3.62
2019-03-17T20:27:40.181Z,5.97
2019-03-17T20:30:17.985Z,3.70
2019-03-17T20:32:55.149Z,3.55
2019-03-17T20:35:32.427Z,3.77
2019-03-17T20:38:09.531Z,5.55
2019-03-17T20:40:46.668Z,4.58
2019-03-17T20:43:34.198Z,3.80
2019-03-17T20:45:59.670Z,6.80
2019-03-17T20:48:37.824Z,9.48
2019-03-17T20:51:12.521Z,7.67
2019-03-17T20:53:50.647Z,6.87
2019-03-17T20:56:27.784Z,5.08
2019-03-17T20:59:04.923Z,5.92
2019-03-17T21:01:39.462Z,5.00
2019-03-17T21:04:16.756Z,4.08
2019-03-17T21:06:54.076Z,6.37
2019-03-17T21:09:31.111Z,3.05
2019-03-17T21:12:08.367Z,3.65
2019-03-17T21:14:43.030Z,6.60
2019-03-17T21:17:20.103Z,4.15
2019-03-17T21:19:57.179Z,3.60
2019-03-17T21:22:34.395Z,5.03
2019-03-17T21:25:09.277Z,5.12
2019-03-17T21:27:46.490Z,6.00
2019-03-17T21:30:22.426Z,5.40
2019-03-17T21:32:59.507Z,8.95
2019-03-17T21:35:36.849Z,6.47
2019-03-17T21:38:14.171Z,5.30
2019-03-17T21:41:06.203Z,3.08
2019-03-17T21:43:29.996Z,5.90
2019-03-17T21:46:04.701Z,5.12
2019-03-17T21:48:39.445Z,4.65
2019-03-17T21:51:16.771Z,4.45
2019-03-17T21:53:54.004Z,7.05
2019-03-17T21:56:31.369Z,6.08
2019-03-17T21:59:08.623Z,5.25
2019-03-17T22:01:45.990Z,6.28
2019-03-17T22:04:23.220Z,4.17
2019-03-17T22:07:00.790Z,8.48
2019-03-17T22:09:38.126Z,3.92
2019-03-17T22:12:15.363Z,2.33
2019-03-17T22:14:52.426Z,4.40
2019-03-17T22:17:29.630Z,2.87
2019-03-17T22:20:06.909Z,5.12
2019-03-17T22:22:44.175Z,4.85
2019-03-17T22:25:21.593Z,10.93
2019-03-17T22:28:08.160Z,5.70
2019-03-17T22:30:40.585Z,5.35
2019-03-17T22:33:17.723Z,5.47
2019-03-17T22:35:54.797Z,3.20
2019-03-17T22:38:31.894Z,4.03
2019-03-17T22:41:09.064Z,4.12
2019-03-17T22:43:46.098Z,5.17
2019-03-17T22:46:25.725Z,7.15
2019-03-17T22:49:00.416Z,3.87
2019-03-17T22:51:37.612Z,4.55
2019-03-17T22:54:14.843Z,6.03
2019-03-17T22:56:52.089Z,7.33
2019-03-17T22:59:29.928Z,4.47
2019-03-17T23:02:07.233Z,7.62
2019-03-17T23:04:44.630Z,7.08
2019-03-17T23:07:22.040Z,4.67
2019-03-17T23:10:01.828Z,4.95
2019-03-17T23:12:37.617Z,3.22
2019-03-17T23:15:14.955Z,5.62
2019-03-17T23:17:52.128Z,6.03
2019-03-17T23:20:29.522Z,3.65
2019-03-17T23:23:06.726Z,5.47
2019-03-17T23:25:43.863Z,10.18
2019-03-17T23:28:20.912Z,4.33
2019-03-17T23:31:03.033Z,3.83
2019-03-17T23:33:45.117Z,7.10
2019-03-17T23:36:20.800Z,3.62
2019-03-17T23:38:57.932Z,7.15
2019-03-17T23:41:35.033Z,10.30
2019-03-17T23:44:12.218Z,3.62
2019-03-17T23:46:46.877Z,3.95
2019-03-17T23:49:21.966Z,3.45
2019-03-17T23:51:56.978Z,3.00
2019-03-17T23:54:35.113Z,4.87
2019-03-17T23:57:12.884Z,7.08
2019-03-17T23:59:50.053Z,3.62
